Time;durP1;ratioP1;P1;durP2;ratioP2;P2;SDS_P1;SDS_P2;PMS_P1;PMS_P2;Temp;Humidity;BMP_temperature;BMP_pressure;BME280_temperature;BME280_humidity;BME280_pressure;Samples;Min_cycle;Max_cycle;Signal;HPM_P1;HPM_P2
2022/12/22 03:26:42;;;;;;;36.25;17.75;;;6.70;99.90;;;;;;5028710;28;20044;-78
2022/12/22 03:29:08;;;;;;;34.35;17.02;;;6.60;99.90;;;;;;5031315;28;20033;-78
2022/12/22 03:31:33;;;;;;;31.60;16.45;;;6.70;99.90;;;;;;5030473;28;20053;-78
2022/12/22 03:33:58;;;;;;;36.00;17.40;;;6.70;99.90;;;;;;5030057;28;20033;-78
2022/12/22 03:36:24;;;;;;;37.25;17.05;;;6.70;99.90;;;;;;5026922;28;20149;-78
2022/12/22 03:38:49;;;;;;;30.17;16.15;;;6.70;99.90;;;;;;5021741;28;20034;-78
2022/12/22 03:46:43;;;;;;;34.92;16.02;;;6.70;99.90;;;;;;5024653;28;20055;-78
2022/12/22 03:49:08;;;;;;;32.90;15.77;;;6.70;99.90;;;;;;5027676;28;21005;-79
2022/12/22 03:51:42;;;;;;;31.75;16.92;;;6.70;99.90;;;;;;5025965;28;20049;-78
2022/12/22 03:54:09;;;;;;;34.72;15.82;;;6.70;99.90;;;;;;5028879;28;20036;-79
2022/12/22 03:56:34;;;;;;;31.73;15.85;;;6.70;99.90;;;;;;5026144;28;20037;-78
2022/12/22 03:59:00;;;;;;;34.33;17.17;;;6.60;99.90;;;;;;5028828;28;20052;-78
2022/12/22 04:01:25;;;;;;;37.17;17.10;;;6.60;99.90;;;;;;5025647;28;20036;-78
2022/12/22 04:03:51;;;;;;;35.60;15.95;;;6.70;99.90;;;;;;5028255;28;20556;-78
2022/12/22 04:06:17;;;;;;;35.15;15.80;;;6.70;99.90;;;;;;5027007;28;20033;-78
2022/12/22 04:08:43;;;;;;;32.90;15.80;;;6.70;99.90;;;;;;5030232;28;20033;-79
2022/12/22 04:13:55;;;;;;;32.50;15.43;;;6.70;99.90;;;;;;5020205;28;20048;-78
2022/12/22 04:16:20;;;;;;;33.60;15.50;;;6.60;99.90;;;;;;5025351;28;20524;-78
2022/12/22 04:18:46;;;;;;;31.30;15.35;;;6.70;99.90;;;;;;5017992;28;20041;-78
2022/12/22 04:21:11;;;;;;;35.88;16.77;;;6.70;99.90;;;;;;5027164;28;20484;-78
2022/12/22 04:23:37;;;;;;;33.53;15.85;;;6.70;99.90;;;;;;5028232;28;20100;-78
2022/12/22 04:26:02;;;;;;;39.35;16.83;;;6.70;99.90;;;;;;5029402;28;20036;-78
2022/12/22 04:28:28;;;;;;;38.63;16.30;;;6.70;99.90;;;;;;5028079;28;20087;-78
2022/12/22 04:30:53;;;;;;;33.47;15.52;;;6.70;99.90;;;;;;5028371;28;20061;-78
2022/12/22 04:33:18;;;;;;;41.33;17.27;;;6.70;99.90;;;;;;5028077;28;20041;-78
2022/12/22 04:35:44;;;;;;;33.45;15.63;;;6.80;99.90;;;;;;5031116;28;20030;-78
2022/12/22 04:38:09;;;;;;;38.50;17.58;;;6.80;99.90;;;;;;5023680;28;20056;-78
2022/12/22 04:40:35;;;;;;;42.45;17.23;;;6.80;99.90;;;;;;5032247;28;20458;-78
2022/12/22 04:43:01;;;;;;;40.65;17.48;;;6.80;99.90;;;;;;5031572;28;20063;-78
2022/12/22 04:45:26;;;;;;;37.13;17.80;;;6.80;99.90;;;;;;5024451;28;20038;-78
2022/12/22 04:47:52;;;;;;;36.25;17.40;;;6.80;99.90;;;;;;5033188;28;20025;-79
2022/12/22 04:50:17;;;;;;;33.10;17.05;;;6.80;99.90;;;;;;5028926;28;20038;-78
2022/12/22 04:52:43;;;;;;;40.58;18.55;;;6.80;99.90;;;;;;5029062;28;20040;-78
2022/12/22 04:55:08;;;;;;;37.60;16.83;;;6.80;99.90;;;;;;5031381;28;20113;-78
2022/12/22 04:57:35;;;;;;;38.78;16.95;;;6.80;99.90;;;;;;5031410;28;20458;-78
2022/12/22 05:00:00;;;;;;;38.17;16.98;;;6.80;99.90;;;;;;5028035;28;20034;-78
2022/12/22 05:02:26;;;;;;;41.22;18.45;;;6.80;99.90;;;;;;5021446;28;20045;-79
2022/12/22 05:04:51;;;;;;;42.60;18.08;;;6.80;99.90;;;;;;5029001;28;20475;-78
2022/12/22 05:07:17;;;;;;;36.13;17.15;;;6.80;99.90;;;;;;5028243;28;20403;-78
2022/12/22 05:09:42;;;;;;;39.53;17.88;;;6.80;99.90;;;;;;5024416;28;20068;-78
2022/12/22 05:14:57;;;;;;;32.70;16.45;;;6.80;99.90;;;;;;5011714;28;20038;-78
2022/12/22 05:17:22;;;;;;;35.70;16.83;;;6.80;99.90;;;;;;5031150;28;20025;-78
2022/12/22 05:19:48;;;;;;;36.05;17.65;;;6.80;99.90;;;;;;5024451;28;20505;-78
2022/12/22 05:22:13;;;;;;;37.80;17.70;;;6.90;99.90;;;;;;5026635;28;20046;-78
2022/12/22 05:24:39;;;;;;;43.50;17.52;;;6.80;99.90;;;;;;5027719;28;20041;-78
2022/12/22 05:27:04;;;;;;;34.35;16.98;;;6.80;99.90;;;;;;5030460;28;20033;-77
2022/12/22 05:29:30;;;;;;;36.00;17.40;;;6.80;99.90;;;;;;5032875;28;20029;-72
2022/12/22 05:31:55;;;;;;;37.92;17.60;;;6.90;99.90;;;;;;5032932;28;20041;-73
2022/12/22 05:34:21;;;;;;;43.95;17.25;;;6.80;99.90;;;;;;5024161;28;20033;-73
2022/12/22 05:36:46;;;;;;;33.92;15.77;;;6.80;99.90;;;;;;5012588;28;20044;-74
2022/12/22 05:39:11;;;;;;;40.97;17.63;;;6.80;99.90;;;;;;5023913;28;20060;-73
2022/12/22 05:41:37;;;;;;;37.28;16.30;;;6.80;99.90;;;;;;5031841;28;20052;-74
2022/12/22 05:44:03;;;;;;;42.72;18.48;;;6.80;99.90;;;;;;5028696;28;20045;-74
2022/12/22 05:46:28;;;;;;;39.45;16.92;;;6.80;99.90;;;;;;5032707;28;20064;-74
2022/12/22 05:48:53;;;;;;;35.08;17.52;;;6.80;99.90;;;;;;5031872;28;20076;-74
2022/12/22 05:51:19;;;;;;;38.65;16.70;;;6.90;99.90;;;;;;5029957;28;20396;-73
2022/12/22 05:53:44;;;;;;;40.92;17.73;;;6.80;99.90;;;;;;5025258;28;20759;-73
2022/12/22 05:56:10;;;;;;;39.50;17.95;;;6.80;99.90;;;;;;5029180;28;20038;-74
2022/12/22 05:58:38;;;;;;;38.42;17.20;;;6.90;99.90;;;;;;5024911;28;20042;-74
2022/12/22 06:01:05;;;;;;;42.35;18.33;;;6.90;99.90;;;;;;5023700;28;20021;-73
2022/12/22 06:03:30;;;;;;;44.13;16.83;;;6.90;99.90;;;;;;5027288;28;20037;-74
2022/12/22 06:05:57;;;;;;;40.58;16.70;;;6.90;99.90;;;;;;5028216;28;20026;-74
2022/12/22 06:08:23;;;;;;;42.33;19.10;;;6.90;99.90;;;;;;5031613;28;20030;-74
2022/12/22 06:10:48;;;;;;;39.28;17.85;;;6.90;99.90;;;;;;5028208;28;20082;-74
2022/12/22 06:13:14;;;;;;;38.58;17.25;;;6.90;99.90;;;;;;5032265;28;20025;-74
2022/12/22 06:15:40;;;;;;;40.15;19.08;;;6.90;99.90;;;;;;5031582;28;20040;-74
2022/12/22 06:18:05;;;;;;;40.97;18.63;;;6.90;99.90;;;;;;5024747;28;20057;-74
2022/12/22 06:20:31;;;;;;;39.17;16.65;;;6.90;99.90;;;;;;5029091;28;20108;-73
2022/12/22 06:22:56;;;;;;;45.00;18.85;;;6.90;99.90;;;;;;5027298;28;20065;-74
2022/12/22 06:25:22;;;;;;;44.17;18.40;;;6.90;99.90;;;;;;5031773;28;20033;-74
2022/12/22 06:27:47;;;;;;;40.50;16.98;;;6.80;99.90;;;;;;5025291;28;20075;-73
2022/12/22 06:30:14;;;;;;;40.75;18.48;;;6.90;99.90;;;;;;5024729;28;20041;-73
2022/12/22 06:32:40;;;;;;;44.88;17.85;;;6.90;99.90;;;;;;5032457;28;20038;-73
2022/12/22 06:35:06;;;;;;;43.83;17.63;;;6.90;99.90;;;;;;5028834;28;20036;-74
2022/12/22 06:37:32;;;;;;;47.13;18.67;;;6.80;99.90;;;;;;5032156;28;20034;-74
2022/12/22 06:39:57;;;;;;;38.70;17.20;;;6.90;99.90;;;;;;5030194;28;20037;-73
2022/12/22 06:45:07;;;;;;;36.25;16.05;;;6.90;99.90;;;;;;5029142;28;20445;-73
2022/12/22 06:47:33;;;;;;;41.83;18.23;;;6.90;99.90;;;;;;5023946;28;20084;-73
2022/12/22 06:49:58;;;;;;;41.83;17.23;;;6.90;99.90;;;;;;5025941;28;20045;-73
2022/12/22 06:52:24;;;;;;;39.53;17.65;;;6.90;99.90;;;;;;5024651;28;20037;-73
2022/12/22 06:54:49;;;;;;;37.10;16.77;;;6.90;99.90;;;;;;5031780;28;20040;-73
2022/12/22 06:57:15;;;;;;;42.85;18.52;;;6.90;99.90;;;;;;5031468;28;20055;-73
2022/12/22 06:59:41;;;;;;;42.65;17.27;;;6.90;99.90;;;;;;5028483;28;20095;-73
2022/12/22 07:02:08;;;;;;;42.38;17.48;;;6.90;99.90;;;;;;5029202;28;20497;-73
2022/12/22 07:04:33;;;;;;;38.38;16.65;;;6.90;99.90;;;;;;5028857;28;20029;-73
2022/12/22 07:06:59;;;;;;;42.47;16.98;;;6.90;99.90;;;;;;5027619;28;20041;-73
2022/12/22 07:09:24;;;;;;;41.05;17.30;;;7.00;99.90;;;;;;5025508;28;20071;-73
2022/12/22 07:11:50;;;;;;;41.35;16.35;;;6.90;99.90;;;;;;5023176;28;20041;-73
2022/12/22 07:14:15;;;;;;;43.72;16.48;;;7.00;99.90;;;;;;5029471;28;20026;-73
2022/12/22 07:16:40;;;;;;;41.10;17.15;;;6.90;99.90;;;;;;5027485;28;20029;-73
2022/12/22 07:19:06;;;;;;;44.00;17.50;;;6.90;99.90;;;;;;5035166;28;20049;-74
2022/12/22 07:21:31;;;;;;;41.92;17.30;;;7.00;99.90;;;;;;5027722;28;20045;-74
2022/12/22 07:23:57;;;;;;;35.65;16.02;;;7.00;99.90;;;;;;5028239;28;20051;-73
2022/12/22 07:26:22;;;;;;;38.00;17.17;;;7.00;99.90;;;;;;5029190;28;20056;-73
2022/12/22 07:28:48;;;;;;;38.58;16.15;;;7.00;99.90;;;;;;5025873;28;20385;-73
2022/12/22 07:31:16;;;;;;;40.85;17.30;;;7.10;99.90;;;;;;5030835;28;20088;-74
2022/12/22 07:33:41;;;;;;;39.28;15.38;;;7.00;99.90;;;;;;5026068;28;20040;-73
2022/12/22 07:36:13;;;;;;;38.17;16.92;;;7.10;99.90;;;;;;5026864;28;20026;-73
2022/12/22 07:38:42;;;;;;;41.78;17.50;;;7.10;99.90;;;;;;5027837;28;20030;-73
2022/12/22 07:43:55;;;;;;;39.33;16.98;;;7.00;99.90;;;;;;5030882;28;20028;-73
2022/12/22 07:46:23;;;;;;;43.15;17.05;;;7.00;99.90;;;;;;5029453;28;21284;-73
2022/12/22 07:51:34;;;;;;;37.25;15.85;;;7.00;99.90;;;;;;5028050;28;20040;-73
2022/12/22 07:53:59;;;;;;;40.33;15.73;;;7.00;99.90;;;;;;5030756;28;20064;-73
2022/12/22 07:56:25;;;;;;;39.58;15.90;;;7.00;99.90;;;;;;5028510;28;20389;-73
2022/12/22 07:58:50;;;;;;;40.60;15.30;;;7.00;99.90;;;;;;5031431;28;20140;-73
2022/12/22 08:01:16;;;;;;;37.13;16.27;;;7.00;99.90;;;;;;5022268;28;20064;-73
2022/12/22 08:03:41;;;;;;;40.60;15.98;;;7.00;99.90;;;;;;5033824;28;20043;-73
2022/12/22 08:06:07;;;;;;;44.83;16.20;;;7.00;99.90;;;;;;5031928;28;20030;-73
2022/12/22 08:08:34;;;;;;;41.75;16.38;;;7.00;99.90;;;;;;5033273;28;20044;-73
2022/12/22 08:11:03;;;;;;;41.00;15.75;;;7.00;99.90;;;;;;5029456;28;20037;-73
2022/12/22 08:13:29;;;;;;;39.00;16.83;;;7.00;99.90;;;;;;5026407;28;20033;-73
2022/12/22 08:15:54;;;;;;;35.30;16.23;;;7.00;99.90;;;;;;5031984;28;20056;-73
2022/12/22 08:18:20;;;;;;;34.58;16.10;;;7.00;99.90;;;;;;5022522;28;20072;-73
2022/12/22 08:20:49;;;;;;;40.55;17.23;;;7.00;99.90;;;;;;5026207;28;20026;-73
2022/12/22 08:23:15;;;;;;;37.47;15.98;;;7.00;99.90;;;;;;5032552;28;20076;-73
2022/12/22 08:25:41;;;;;;;36.60;16.60;;;7.00;99.90;;;;;;5032710;28;20073;-74
2022/12/22 08:28:07;;;;;;;41.92;17.17;;;7.00;99.90;;;;;;5031679;28;20029;-73
2022/12/22 08:30:33;;;;;;;39.33;16.25;;;7.10;99.90;;;;;;5029554;28;20046;-73
2022/12/22 08:32:58;;;;;;;40.60;16.20;;;7.00;99.90;;;;;;5021906;28;20073;-73
2022/12/22 08:35:24;;;;;;;41.13;17.08;;;7.10;99.90;;;;;;5031825;28;20073;-73
2022/12/22 08:37:50;;;;;;;35.15;16.33;;;7.10;99.90;;;;;;5030244;28;20029;-73
2022/12/22 08:40:25;;;;;;;47.20;17.75;;;7.10;99.90;;;;;;5029816;28;20102;-73
2022/12/22 08:42:55;;;;;;;39.83;16.25;;;7.00;99.90;;;;;;5028351;28;20037;-73
2022/12/22 08:45:20;;;;;;;35.28;15.93;;;7.10;99.90;;;;;;5017737;28;20026;-73
2022/12/22 08:47:46;;;;;;;40.83;15.77;;;7.10;99.90;;;;;;5025303;28;20048;-73
2022/12/22 08:50:12;;;;;;;41.85;16.83;;;7.10;99.90;;;;;;5031414;28;20038;-73
2022/12/22 08:52:38;;;;;;;36.95;16.90;;;7.10;99.90;;;;;;5019837;28;20029;-74
2022/12/22 08:55:04;;;;;;;41.22;16.80;;;7.10;99.90;;;;;;5025544;28;20030;-73
2022/12/22 08:57:29;;;;;;;40.20;17.17;;;7.10;99.90;;;;;;5033676;28;20041;-73
2022/12/22 08:59:55;;;;;;;36.45;16.33;;;7.00;99.90;;;;;;5023966;28;20036;-73
2022/12/22 09:02:21;;;;;;;37.72;17.00;;;7.10;99.90;;;;;;5033191;28;20034;-73
2022/12/22 09:04:46;;;;;;;39.88;16.88;;;7.00;99.90;;;;;;5031743;28;20030;-73
2022/12/22 09:07:11;;;;;;;42.38;17.40;;;7.10;99.90;;;;;;5032041;28;20033;-73
2022/12/22 09:09:37;;;;;;;43.65;17.30;;;7.00;99.90;;;;;;5021946;28;20052;-73
2022/12/22 09:12:03;;;;;;;42.08;18.55;;;7.10;99.90;;;;;;5017172;28;20060;-73
2022/12/22 09:14:29;;;;;;;39.85;16.85;;;7.10;99.90;;;;;;5032242;28;20060;-73
2022/12/22 09:16:55;;;;;;;41.70;17.83;;;7.10;99.90;;;;;;5021938;28;20367;-72
2022/12/22 09:19:20;;;;;;;39.30;17.00;;;7.10;99.90;;;;;;5023873;28;20033;-73
2022/12/22 09:21:46;;;;;;;39.25;17.45;;;7.10;99.90;;;;;;5030294;28;20135;-71
2022/12/22 09:24:11;;;;;;;34.90;15.52;;;7.10;99.90;;;;;;5028408;28;20133;-73
2022/12/22 09:26:37;;;;;;;37.22;15.70;;;7.10;99.90;;;;;;5028531;28;20030;-82
2022/12/22 09:29:03;;;;;;;33.47;15.57;;;7.10;99.90;;;;;;5025507;28;20041;-74
2022/12/22 09:31:29;;;;;;;37.40;15.60;;;7.20;99.90;;;;;;5026466;28;20035;-74
2022/12/22 09:33:55;;;;;;;38.08;16.85;;;7.20;99.90;;;;;;5025303;28;20033;-73
2022/12/22 09:36:23;;;;;;;36.65;16.08;;;7.30;99.90;;;;;;5027607;28;20027;-74
2022/12/22 09:38:49;;;;;;;42.03;17.55;;;7.30;99.90;;;;;;5032611;28;20077;-74
2022/12/22 09:41:24;;;;;;;47.97;18.10;;;7.30;99.90;;;;;;5033139;28;20061;-73
2022/12/22 09:43:50;;;;;;;53.78;18.58;;;7.30;99.90;;;;;;5023748;28;20053;-74
2022/12/22 09:46:25;;;;;;;52.90;19.67;;;7.40;99.90;;;;;;5024667;28;20036;-74
2022/12/22 09:48:52;;;;;;;45.20;18.83;;;7.40;99.90;;;;;;5026057;28;20107;-73
2022/12/22 09:51:18;;;;;;;53.97;19.73;;;7.40;99.90;;;;;;5026536;28;20033;-73
2022/12/22 09:53:51;;;;;;;49.35;19.63;;;7.40;99.90;;;;;;5030719;28;20178;-74
2022/12/22 09:56:17;;;;;;;42.40;19.65;;;7.40;99.90;;;;;;5030209;28;20458;-74
2022/12/22 09:58:44;;;;;;;52.25;19.67;;;7.40;99.90;;;;;;5028241;28;20116;-74
2022/12/22 10:01:34;;;;;;;53.22;20.35;;;7.40;99.90;;;;;;5021268;28;20083;-74
2022/12/22 10:04:05;;;;;;;54.30;20.75;;;7.50;99.90;;;;;;5020457;28;20382;-74
2022/12/22 10:07:01;;;;;;;56.90;20.08;;;7.50;99.90;;;;;;5028952;28;20037;-74
2022/12/22 10:09:29;;;;;;;54.58;20.52;;;7.50;99.90;;;;;;5026506;28;20519;-72
2022/12/22 10:12:00;;;;;;;55.83;21.38;;;7.50;99.90;;;;;;5022078;28;20103;-72
2022/12/22 10:14:33;;;;;;;65.03;21.65;;;7.60;99.90;;;;;;5024485;28;20389;-71
2022/12/22 10:17:16;;;;;;;59.28;21.10;;;7.60;99.90;;;;;;5027748;28;20531;-72
2022/12/22 10:19:41;;;;;;;55.35;21.38;;;7.60;99.90;;;;;;5021552;28;20041;-72
2022/12/22 10:22:31;;;;;;;57.10;22.27;;;7.60;99.90;;;;;;5030354;28;20124;-71
2022/12/22 10:25:00;;;;;;;57.65;22.52;;;7.70;99.90;;;;;;5026804;28;20037;-72
2022/12/22 10:27:29;;;;;;;66.90;23.80;;;7.60;99.90;;;;;;5031678;28;20410;-72
2022/12/22 10:30:16;;;;;;;59.63;23.25;;;7.60;99.90;;;;;;5027796;28;20045;-72
2022/12/22 10:32:42;;;;;;;60.80;23.02;;;7.60;99.90;;;;;;5021911;28;20040;-72
2022/12/22 10:35:08;;;;;;;62.08;24.30;;;7.60;99.90;;;;;;5018367;28;20045;-72
2022/12/22 10:37:35;;;;;;;57.20;23.25;;;7.60;99.90;;;;;;5023831;28;20113;-71
2022/12/22 10:40:16;;;;;;;57.80;23.50;;;7.60;99.90;;;;;;5026468;28;20065;-71
2022/12/22 10:42:52;;;;;;;55.17;22.33;;;7.60;99.90;;;;;;5024265;28;20033;-72
2022/12/22 10:45:21;;;;;;;56.92;22.42;;;7.60;99.90;;;;;;5027139;28;20045;-74
2022/12/22 10:47:50;;;;;;;56.10;22.85;;;7.60;99.90;;;;;;5030902;28;20386;-73
2022/12/22 10:50:17;;;;;;;61.08;24.50;;;7.60;99.90;;;;;;5024218;28;20032;-74
2022/12/22 10:52:52;;;;;;;54.65;23.77;;;7.60;99.90;;;;;;5033644;28;20044;-73
2022/12/22 10:55:24;;;;;;;59.65;24.55;;;7.50;99.90;;;;;;5027024;28;20033;-73
2022/12/22 10:57:50;;;;;;;61.83;25.20;;;7.50;99.90;;;;;;5030475;28;20029;-73
2022/12/22 11:00:30;;;;;;;70.60;25.75;;;7.50;99.90;;;;;;5030648;28;20076;-73
2022/12/22 11:03:00;;;;;;;63.08;25.52;;;7.50;99.90;;;;;;5026880;28;20120;-73
2022/12/22 11:05:26;;;;;;;59.03;26.38;;;7.50;99.90;;;;;;5028430;28;20124;-73
2022/12/22 11:07:53;;;;;;;64.95;26.63;;;7.50;99.90;;;;;;5020549;28;20042;-72
2022/12/22 11:10:31;;;;;;;66.72;26.27;;;7.50;99.90;;;;;;5027843;28;20033;-72
2022/12/22 11:13:28;;;;;;;69.35;27.05;;;7.50;99.90;;;;;;5024498;28;20033;-72
2022/12/22 11:16:06;;;;;;;63.72;25.90;;;7.50;99.90;;;;;;5015125;28;20026;-72
2022/12/22 11:19:06;;;;;;;68.30;25.40;;;7.50;99.90;;;;;;5023292;28;20033;-72
2022/12/22 11:22:03;;;;;;;74.63;27.23;;;7.50;99.90;;;;;;5029956;28;20371;-73
2022/12/22 11:24:39;;;;;;;55.47;24.73;;;7.50;99.90;;;;;;5026312;28;20155;-73
2022/12/22 11:27:32;;;;;;;58.95;25.27;;;7.50;99.90;;;;;;5032400;28;20025;-74
2022/12/22 11:30:12;;;;;;;55.85;24.80;;;7.50;99.90;;;;;;5023543;28;20033;-74
2022/12/22 11:33:04;;;;;;;60.33;28.23;;;7.60;99.90;;;;;;5028402;28;20057;-73
2022/12/22 11:35:42;;;;;;;54.55;25.73;;;7.80;99.90;;;;;;5018021;28;20474;-73
2022/12/22 11:38:35;;;;;;;56.33;25.40;;;7.80;99.90;;;;;;5024797;28;20041;-73
2022/12/22 11:41:21;;;;;;;51.75;25.20;;;7.80;99.90;;;;;;5029455;28;20030;-73
2022/12/22 11:44:25;;;;;;;55.08;25.08;;;7.90;99.90;;;;;;5030250;28;20417;-73
2022/12/22 11:46:59;;;;;;;51.08;24.17;;;7.80;99.90;;;;;;5036252;28;20491;-73
2022/12/22 11:49:45;;;;;;;51.85;23.80;;;7.90;99.90;;;;;;5015763;28;20038;-73
2022/12/22 11:52:28;;;;;;;46.90;24.20;;;8.20;99.90;;;;;;5029664;28;20041;-73
2022/12/22 11:55:14;;;;;;;46.53;23.50;;;8.40;99.90;;;;;;5027556;28;20076;-73
2022/12/22 11:58:09;;;;;;;44.65;23.15;;;8.50;99.90;;;;;;5015921;28;20030;-73
2022/12/22 12:00:50;;;;;;;38.47;19.90;;;8.50;99.90;;;;;;5023609;28;20021;-73
2022/12/22 12:03:31;;;;;;;41.42;19.55;;;8.30;99.90;;;;;;5024791;28;20033;-73
2022/12/22 12:06:12;;;;;;;34.55;19.42;;;8.20;99.90;;;;;;5019257;28;20095;-73
2022/12/22 12:08:58;;;;;;;31.77;18.00;;;8.10;99.90;;;;;;5017276;28;20038;-72
2022/12/22 12:11:48;;;;;;;33.00;18.33;;;7.90;99.90;;;;;;5018600;28;20046;-73
2022/12/22 12:14:33;;;;;;;29.42;16.27;;;7.80;99.90;;;;;;5017646;28;20131;-72
2022/12/22 12:17:03;;;;;;;31.08;17.50;;;7.60;99.90;;;;;;5028305;28;20044;-72
2022/12/22 12:19:42;;;;;;;33.08;17.45;;;7.50;99.90;;;;;;5024015;28;20025;-72
2022/12/22 12:22:18;;;;;;;31.20;16.60;;;7.50;99.90;;;;;;5026995;28;20061;-71
2022/12/22 12:25:00;;;;;;;34.80;18.30;;;7.40;99.90;;;;;;5019854;28;20085;-72
2022/12/22 12:28:20;;;;;;;34.22;17.08;;;7.40;99.90;;;;;;5022645;28;20034;-72
2022/12/22 12:30:57;;;;;;;30.40;17.13;;;7.40;99.90;;;;;;4983721;28;20034;-72
2022/12/22 12:33:31;;;;;;;31.55;16.88;;;7.40;99.90;;;;;;5022714;28;20461;-72
2022/12/22 12:36:01;;;;;;;34.03;16.85;;;7.50;99.90;;;;;;5015596;28;20561;-72
2022/12/22 12:38:51;;;;;;;29.27;15.63;;;7.50;99.90;;;;;;5024946;28;20466;-72
2022/12/22 12:41:32;;;;;;;27.50;14.52;;;7.50;99.90;;;;;;5025149;28;20453;-71
2022/12/22 12:43:58;;;;;;;;;;;7.50;99.90;;;;;;5026166;28;20025;-72
2022/12/22 12:46:51;;;;;;;28.70;13.80;;;7.60;99.90;;;;;;5021669;28;20030;-72
2022/12/22 12:49:35;;;;;;;31.98;15.73;;;7.60;99.90;;;;;;5027212;28;20075;-72
2022/12/22 12:52:05;;;;;;;29.15;15.23;;;7.60;99.80;;;;;;5027204;28;20474;-71
2022/12/22 12:54:31;;;;;;;32.83;15.70;;;7.60;99.70;;;;;;5022351;28;20018;-72
2022/12/22 12:57:06;;;;;;;25.42;14.82;;;7.60;99.70;;;;;;5024312;28;20088;-72
2022/12/22 12:59:40;;;;;;;30.00;15.27;;;7.60;99.60;;;;;;5027363;28;20430;-72
2022/12/22 13:02:35;;;;;;;26.55;15.15;;;7.60;99.60;;;;;;5026433;28;20033;-72
2022/12/22 13:05:10;;;;;;;26.90;13.68;;;7.60;99.40;;;;;;5021618;28;20033;-71
2022/12/22 13:08:14;;;;;;;27.17;15.52;;;7.50;99.10;;;;;;5033520;28;20025;-72
2022/12/22 13:10:42;;;;;;;28.77;14.88;;;7.50;99.20;;;;;;5023563;28;20032;-72
2022/12/22 13:13:15;;;;;;;27.52;14.25;;;7.50;98.90;;;;;;5029709;28;20038;-72
2022/12/22 13:15:43;;;;;;;29.30;15.43;;;7.50;99.10;;;;;;5026390;28;20041;-72
2022/12/22 13:18:24;;;;;;;26.98;15.02;;;7.50;99.20;;;;;;5028129;28;20725;-73
2022/12/22 13:21:01;;;;;;;30.33;15.40;;;7.40;99.20;;;;;;5022862;28;20029;-72
2022/12/22 13:23:35;;;;;;;29.80;14.70;;;7.40;99.10;;;;;;5025457;28;20032;-71
2022/12/22 13:26:06;;;;;;;26.58;15.48;;;7.40;99.20;;;;;;5018600;28;20038;-71
2022/12/22 13:28:34;;;;;;;27.17;14.15;;;7.40;99.20;;;;;;5032912;28;20045;-71
2022/12/22 13:31:05;;;;;;;27.13;15.07;;;7.40;99.10;;;;;;5028977;28;20071;-71
2022/12/22 13:33:36;;;;;;;27.90;14.70;;;7.40;99.10;;;;;;5023270;28;20034;-71
2022/12/22 13:36:03;;;;;;;28.70;16.00;;;7.50;99.00;;;;;;5027734;28;20041;-71
2022/12/22 13:38:35;;;;;;;28.35;15.75;;;7.40;98.90;;;;;;5032121;28;20034;-72
2022/12/22 13:41:20;;;;;;;28.70;16.00;;;7.40;99.10;;;;;;5033295;28;20112;-71
2022/12/22 13:43:55;;;;;;;31.23;14.57;;;7.40;99.10;;;;;;5031951;28;20029;-72
2022/12/22 13:46:20;;;;;;;29.42;14.88;;;7.30;99.10;;;;;;5029904;28;20099;-71
2022/12/22 13:48:50;;;;;;;31.70;15.65;;;7.30;99.00;;;;;;5031059;28;20453;-71
2022/12/22 13:51:26;;;;;;;28.90;15.37;;;7.20;99.00;;;;;;5031452;28;20033;-71
2022/12/22 13:53:58;;;;;;;32.97;14.05;;;7.10;99.10;;;;;;5031443;28;20285;-71
2022/12/22 13:56:32;;;;;;;29.00;13.57;;;7.10;98.90;;;;;;5033662;28;20112;-71
2022/12/22 13:58:59;;;;;;;35.20;14.75;;;7.10;98.90;;;;;;5032691;28;20017;-71
2022/12/22 14:01:24;;;;;;;23.88;12.68;;;7.00;98.80;;;;;;5027190;28;20036;-71
2022/12/22 14:03:55;;;;;;;25.95;14.30;;;7.00;98.90;;;;;;5030462;28;20413;-71
2022/12/22 14:06:39;;;;;;;26.55;12.77;;;7.00;98.80;;;;;;5030341;28;20069;-73
2022/12/22 14:09:13;;;;;;;31.23;13.52;;;6.90;98.80;;;;;;5018812;28;20533;-72
2022/12/22 14:11:39;;;;;;;29.20;13.27;;;6.90;98.80;;;;;;5028159;28;20433;-72
2022/12/22 14:14:18;;;;;;;29.33;14.10;;;6.80;98.90;;;;;;5031848;28;20033;-72
2022/12/22 14:16:47;;;;;;;27.65;12.65;;;6.70;98.90;;;;;;5027531;28;20029;-72
2022/12/22 14:19:14;;;;;;;26.95;13.00;;;6.70;99.00;;;;;;5028066;28;20508;-72
2022/12/22 14:21:41;;;;;;;26.83;12.70;;;6.60;99.10;;;;;;5030512;28;20536;-72
2022/12/22 14:24:14;;;;;;;29.15;14.23;;;6.60;99.10;;;;;;5030269;28;20041;-72
2022/12/22 14:26:39;;;;;;;33.38;13.68;;;6.60;99.10;;;;;;5031907;28;20550;-71
2022/12/22 14:29:10;;;;;;;27.95;12.48;;;6.60;99.10;;;;;;5031815;28;20026;-72
2022/12/22 14:31:49;;;;;;;;;;;6.50;99.00;;;;;;5025753;28;20056;-71
2022/12/22 14:34:32;;;;;;;30.02;11.88;;;6.50;99.00;;;;;;5022246;28;19921;-72
2022/12/22 14:36:58;;;;;;;29.80;12.77;;;6.50;99.00;;;;;;5028200;28;20029;-71
2022/12/22 14:39:30;;;;;;;26.83;12.38;;;6.40;99.10;;;;;;5026255;28;20438;-72
2022/12/22 14:41:58;;;;;;;34.50;12.95;;;6.30;99.00;;;;;;5046270;28;20036;-72
2022/12/22 14:44:44;;;;;;;27.35;12.82;;;6.20;99.10;;;;;;5031711;28;20030;-72
2022/12/22 14:47:10;;;;;;;26.35;11.73;;;6.10;99.30;;;;;;5022022;28;20382;-72
2022/12/22 14:49:47;;;;;;;23.55;11.50;;;6.10;99.30;;;;;;5028783;28;20021;-72
2022/12/22 14:52:39;;;;;;;26.75;12.07;;;6.00;99.30;;;;;;5030781;28;20377;-72
2022/12/22 14:55:19;;;;;;;29.55;12.20;;;5.90;99.40;;;;;;5026608;28;20112;-72
2022/12/22 14:57:45;;;;;;;25.55;10.60;;;5.80;99.40;;;;;;5031332;28;20355;-72
2022/12/22 15:00:23;;;;;;;26.42;11.77;;;5.80;99.60;;;;;;5030286;28;20124;-71
2022/12/22 15:02:57;;;;;;;24.15;12.18;;;5.90;99.50;;;;;;5027421;28;20034;-71
2022/12/22 15:05:27;;;;;;;30.15;12.10;;;5.80;99.40;;;;;;5028713;28;20044;-72
2022/12/22 15:07:55;;;;;;;29.58;12.27;;;5.80;99.40;;;;;;5029185;28;20028;-72
2022/12/22 15:10:21;;;;;;;29.00;11.63;;;5.70;99.30;;;;;;5029198;28;20037;-72
2022/12/22 15:12:48;;;;;;;30.27;11.50;;;5.70;99.40;;;;;;5023333;28;20029;-72
2022/12/22 15:15:17;;;;;;;30.48;11.48;;;5.50;99.30;;;;;;5031262;28;20028;-72
2022/12/22 15:17:52;;;;;;;31.40;11.40;;;5.40;99.30;;;;;;5029875;28;20485;-72
2022/12/22 15:20:26;;;;;;;35.33;12.25;;;5.30;99.40;;;;;;5028156;28;20104;-72
2022/12/22 15:22:52;;;;;;;29.58;11.57;;;5.30;99.60;;;;;;5023976;28;20049;-71
2022/12/22 15:25:21;;;;;;;22.50;11.25;;;5.10;99.40;;;;;;5027944;28;20389;-71
2022/12/22 15:27:47;;;;;;;27.33;11.52;;;4.90;99.50;;;;;;5026989;28;20110;-72
2022/12/22 15:30:15;;;;;;;28.23;10.95;;;4.80;99.60;;;;;;5026697;28;20037;-72
2022/12/22 15:32:41;;;;;;;21.92;9.30;;;4.70;99.60;;;;;;5027257;28;20369;-72
2022/12/22 15:35:32;;;;;;;24.77;9.93;;;4.80;99.90;;;;;;5023552;28;20029;-72
2022/12/22 15:37:58;;;;;;;24.70;10.88;;;4.80;99.90;;;;;;5022025;28;20536;-71
2022/12/22 15:40:24;;;;;;;29.38;10.38;;;4.70;99.90;;;;;;5022140;28;20064;-72
2022/12/22 15:42:50;;;;;;;28.42;10.57;;;4.80;99.90;;;;;;5026673;28;20041;-72
2022/12/22 15:45:17;;;;;;;25.88;10.00;;;4.70;99.90;;;;;;5026072;28;20041;-72
2022/12/22 15:47:47;;;;;;;27.23;10.30;;;4.80;99.90;;;;;;5025240;28;20040;-72
2022/12/22 15:50:20;;;;;;;34.95;10.95;;;4.80;99.90;;;;;;5024615;28;20037;-71
2022/12/22 15:52:52;;;;;;;25.98;10.05;;;4.80;99.90;;;;;;5028147;28;20111;-71
2022/12/22 15:55:19;;;;;;;30.90;11.27;;;4.70;99.90;;;;;;5027197;28;20473;-71
2022/12/22 15:57:47;;;;;;;30.40;9.75;;;4.70;99.90;;;;;;5027827;28;20029;-71
2022/12/22 16:00:14;;;;;;;37.67;11.50;;;4.60;99.90;;;;;;5029171;28;20034;-72
2022/12/22 16:02:40;;;;;;;46.47;12.50;;;4.60;99.90;;;;;;5021212;28;20049;-70
2022/12/22 16:05:06;;;;;;;34.78;11.02;;;4.70;99.90;;;;;;5021058;28;20478;-72
2022/12/22 16:07:32;;;;;;;38.60;11.13;;;4.60;99.90;;;;;;5013610;28;20470;-70
2022/12/22 16:09:59;;;;;;;32.00;11.05;;;4.60;99.90;;;;;;5023330;28;20032;-70
2022/12/22 16:12:25;;;;;;;41.58;12.13;;;4.60;99.90;;;;;;5013608;28;20022;-70
2022/12/22 16:14:53;;;;;;;27.02;10.90;;;4.50;99.90;;;;;;5027697;28;20036;-71
2022/12/22 16:17:24;;;;;;;33.97;11.52;;;4.60;99.90;;;;;;5023443;28;20033;-71
2022/12/22 16:19:49;;;;;;;31.30;11.52;;;4.60;99.90;;;;;;5011918;28;20034;-70
2022/12/22 16:22:17;;;;;;;31.23;11.70;;;4.70;99.90;;;;;;5015829;28;20061;-71
2022/12/22 16:24:46;;;;;;;39.83;12.15;;;4.80;99.90;;;;;;5016854;28;20113;-70
2022/12/22 16:27:12;;;;;;;36.42;11.93;;;4.80;99.90;;;;;;5023289;28;20033;-70
2022/12/22 16:29:41;;;;;;;41.03;12.27;;;4.80;99.90;;;;;;5031534;28;20525;-69
2022/12/22 16:32:29;;;;;;;32.35;11.20;;;4.90;99.90;;;;;;5022339;28;20025;-70
2022/12/22 16:35:10;;;;;;;36.53;11.82;;;4.90;99.90;;;;;;5021017;28;20438;-70
2022/12/22 16:37:36;;;;;;;31.55;11.50;;;4.90;99.90;;;;;;5025012;28;20039;-70
2022/12/22 16:40:03;;;;;;;39.67;11.13;;;4.90;99.90;;;;;;5028153;28;20041;-71